createdAt,value
2023-12-09T00:00:10.241Z,101159.06
2023-12-09T00:02:37.829Z,101158.34
2023-12-09T00:05:05.945Z,101161.70
2023-12-09T00:07:33.561Z,101168.65
2023-12-09T00:10:01.226Z,101173.64
2023-12-09T00:12:29.005Z,101176.86
2023-12-09T00:14:56.913Z,101179.98
2023-12-09T00:30:24.039Z,101179.16
2023-12-09T00:32:51.864Z,101175.09
2023-12-09T00:35:19.727Z,101173.94
2023-12-09T00:37:47.409Z,101171.05
2023-12-09T00:40:14.987Z,101174.23
2023-12-09T00:42:42.845Z,101174.93
2023-12-09T00:45:10.748Z,101177.37
2023-12-09T00:47:38.405Z,101180.62
2023-12-09T00:50:07.160Z,101183.38
2023-12-09T00:52:34.801Z,101183.23
2023-12-09T00:55:02.457Z,101186.15
2023-12-09T00:57:30.063Z,101190.02
2023-12-09T00:59:57.798Z,101192.79
2023-12-09T01:02:25.881Z,101192.48
2023-12-09T01:04:53.951Z,101190.48
2023-12-09T01:07:21.600Z,101191.15
2023-12-09T01:09:49.172Z,101190.13
2023-12-09T01:12:16.975Z,101185.41
2023-12-09T01:14:45.295Z,101183.84
2023-12-09T01:17:12.849Z,101182.48
2023-12-09T01:19:40.442Z,101179.95
2023-12-09T01:22:08.188Z,101178.55
2023-12-09T01:24:36.040Z,101181.79
2023-12-09T01:27:03.845Z,101180.84
2023-12-09T01:29:31.389Z,101183.34
2023-12-09T01:31:59.030Z,101184.13
2023-12-09T01:34:26.727Z,101185.67
2023-12-09T01:36:55.485Z,101185.84
2023-12-09T01:39:23.061Z,101188.16
2023-12-09T01:41:50.638Z,101188.05
2023-12-09T01:44:18.674Z,101191.17
2023-12-09T01:46:46.241Z,101193.19
2023-12-09T01:49:15.492Z,101188.83
2023-12-09T01:51:43.963Z,101185.38
2023-12-09T01:54:11.615Z,101186.23
2023-12-09T01:56:39.445Z,101184.32
2023-12-09T01:59:07.323Z,101185.55
2023-12-09T02:01:35.077Z,101184.13
2023-12-09T02:04:03.041Z,101187.30
2023-12-09T02:06:30.819Z,101191.42
2023-12-09T02:08:58.866Z,101193.63
2023-12-09T02:11:26.498Z,101191.73
2023-12-09T02:14:05.926Z,101187.96
2023-12-09T02:16:44.908Z,101189.10
2023-12-09T02:19:14.750Z,101188.35
2023-12-09T02:22:02.574Z,101189.40
2023-12-09T02:24:30.241Z,101188.05
2023-12-09T02:27:19.437Z,101186.45
2023-12-09T02:29:56.200Z,101189.67
2023-12-09T02:32:26.134Z,101189.55
2023-12-09T02:34:54.051Z,101187.80
2023-12-09T02:37:21.975Z,101188.38
2023-12-09T02:39:49.729Z,101183.35
2023-12-09T02:42:17.315Z,101181.20
2023-12-09T02:44:44.897Z,101181.61
2023-12-09T02:47:15.835Z,101178.20
2023-12-09T02:49:44.161Z,101176.13
2023-12-09T02:52:12.436Z,101178.00
2023-12-09T02:54:40.009Z,101177.75
2023-12-09T02:57:07.719Z,101179.50
2023-12-09T02:59:35.694Z,101181.23
2023-12-09T03:02:03.352Z,101180.60
2023-12-09T03:04:32.543Z,101182.95
2023-12-09T03:07:00.114Z,101184.54
2023-12-09T03:09:27.805Z,101184.38
2023-12-09T03:11:55.566Z,101188.02
2023-12-09T03:14:24.022Z,101184.01
2023-12-09T03:16:51.572Z,101186.18
2023-12-09T03:19:19.336Z,101187.20
2023-12-09T03:21:47.133Z,101192.50
2023-12-09T03:24:14.898Z,101192.27
2023-12-09T03:26:42.527Z,101189.46
2023-12-09T03:29:10.121Z,101190.10
2023-12-09T03:31:40.980Z,101187.77
2023-12-09T03:34:08.908Z,101185.34
2023-12-09T03:36:36.602Z,101188.13
2023-12-09T03:39:05.076Z,101193.19
2023-12-09T03:41:32.705Z,101197.32
2023-12-09T03:44:00.516Z,101200.73
2023-12-09T03:46:28.136Z,101204.08
2023-12-09T03:48:55.941Z,101206.72
2023-12-09T03:51:23.791Z,101203.13
2023-12-09T03:53:51.595Z,101202.04
2023-12-09T03:56:19.202Z,101205.92
2023-12-09T03:58:46.794Z,101202.02
2023-12-09T04:01:14.451Z,101204.44
2023-12-09T04:03:42.313Z,101204.59
2023-12-09T04:06:10.188Z,101203.79
2023-12-09T04:08:37.955Z,101200.36
2023-12-09T04:11:06.473Z,101200.80
2023-12-09T04:13:34.481Z,101200.38
2023-12-09T04:16:02.432Z,101200.65
2023-12-09T04:18:30.202Z,101200.06
2023-12-09T04:20:58.915Z,101198.34
2023-12-09T04:23:26.550Z,101198.20
2023-12-09T04:25:54.218Z,101197.90
2023-12-09T04:28:21.867Z,101190.23
2023-12-09T04:30:49.544Z,101190.83
2023-12-09T04:33:17.211Z,101189.70
2023-12-09T04:35:44.861Z,101190.79
2023-12-09T04:38:12.623Z,101192.58
2023-12-09T04:40:40.186Z,101196.89
2023-12-09T04:43:07.845Z,101200.05
2023-12-09T04:45:35.423Z,101199.69
2023-12-09T04:48:04.642Z,101201.45
2023-12-09T04:50:32.268Z,101198.03
2023-12-09T04:52:59.774Z,101194.06
2023-12-09T04:55:27.800Z,101195.45
2023-12-09T04:57:55.567Z,101197.08
2023-12-09T05:00:23.480Z,101201.34
2023-12-09T05:02:51.952Z,101206.89
2023-12-09T05:05:20.452Z,101212.42
2023-12-09T05:07:48.165Z,101218.77
2023-12-09T05:10:15.668Z,101219.79
2023-12-09T05:12:43.310Z,101222.05
2023-12-09T05:15:12.333Z,101228.70
2023-12-09T05:17:40.150Z,101228.95
2023-12-09T05:20:11.156Z,101229.34
2023-12-09T05:22:39.037Z,101230.55
2023-12-09T05:25:07.370Z,101230.55
2023-12-09T05:27:34.946Z,101233.75
2023-12-09T05:30:02.685Z,101236.27
2023-12-09T05:32:30.650Z,101238.73
2023-12-09T05:34:58.373Z,101239.65
2023-12-09T05:37:25.981Z,101244.79
2023-12-09T05:39:53.700Z,101248.84
2023-12-09T05:42:21.284Z,101246.83
2023-12-09T05:44:48.820Z,101246.04
2023-12-09T05:47:16.387Z,101247.58
2023-12-09T05:49:44.102Z,101245.94
2023-12-09T05:52:11.812Z,101240.21
2023-12-09T05:54:39.403Z,101243.96
2023-12-09T05:57:07.103Z,101247.14
2023-12-09T05:59:34.810Z,101247.20
2023-12-09T06:02:02.306Z,101247.58
2023-12-09T06:04:30.050Z,101248.40
2023-12-09T06:06:57.901Z,101244.97
2023-12-09T06:09:25.671Z,101242.45
2023-12-09T06:11:53.444Z,101237.15
2023-12-09T06:14:21.186Z,101235.50
2023-12-09T06:16:49.060Z,101236.87
2023-12-09T06:19:16.709Z,101238.27
2023-12-09T06:21:44.526Z,101235.39
2023-12-09T06:24:16.547Z,101233.73
2023-12-09T06:26:45.881Z,101237.14
2023-12-09T06:29:16.948Z,101239.26
2023-12-09T06:31:44.562Z,101232.59
2023-12-09T06:34:12.367Z,101238.27
2023-12-09T06:36:40.112Z,101240.95
2023-12-09T06:39:07.892Z,101241.77
2023-12-09T06:41:39.502Z,101235.10
2023-12-09T06:44:07.258Z,101236.39
2023-12-09T06:46:38.401Z,101232.64
2023-12-09T06:49:07.029Z,101230.38
2023-12-09T06:51:34.898Z,101232.08
2023-12-09T06:54:03.256Z,101236.56
2023-12-09T06:56:31.009Z,101239.97
2023-12-09T06:58:58.562Z,101239.62
2023-12-09T07:01:28.443Z,101242.19
2023-12-09T07:03:56.751Z,101241.25
2023-12-09T07:06:25.781Z,101243.02
2023-12-09T07:08:54.439Z,101250.20
2023-12-09T07:11:22.964Z,101252.49
2023-12-09T07:13:50.724Z,101247.36
2023-12-09T07:16:19.874Z,101247.65
2023-12-09T07:18:48.582Z,101249.63
2023-12-09T07:21:16.867Z,101250.02
2023-12-09T07:23:46.448Z,101248.65
2023-12-09T07:26:15.048Z,101247.40
2023-12-09T07:28:42.735Z,101248.66
2023-12-09T07:31:10.675Z,101248.39
2023-12-09T07:33:40.005Z,101242.95
2023-12-09T07:36:08.964Z,101246.61
2023-12-09T07:38:47.335Z,101252.95
2023-12-09T07:41:30.328Z,101259.52
2023-12-09T07:44:03.790Z,101263.71
2023-12-09T07:46:35.304Z,101263.70
2023-12-09T07:49:03.786Z,101267.63
2023-12-09T07:51:31.526Z,101273.12
2023-12-09T07:53:59.186Z,101277.92
2023-12-09T07:56:26.912Z,101277.90
2023-12-09T07:58:54.577Z,101279.84
2023-12-09T08:01:22.300Z,101282.77
2023-12-09T08:03:50.258Z,101283.79
2023-12-09T08:06:18.334Z,101282.16
2023-12-09T08:08:46.051Z,101282.98
2023-12-09T08:11:13.892Z,101278.54
2023-12-09T08:13:44.362Z,101276.39
2023-12-09T08:16:12.109Z,101275.89
2023-12-09T08:18:39.772Z,101272.93
2023-12-09T08:21:07.648Z,101271.27
2023-12-09T08:23:35.601Z,101268.11
2023-12-09T08:26:05.358Z,101270.14
2023-12-09T08:28:36.064Z,101267.89
2023-12-09T08:31:06.212Z,101264.77
2023-12-09T08:33:37.538Z,101260.90
2023-12-09T08:36:06.222Z,101260.14
2023-12-09T08:38:34.066Z,101259.64
2023-12-09T08:41:01.628Z,101255.14
2023-12-09T08:43:29.288Z,101254.55
2023-12-09T08:45:56.903Z,101251.94
2023-12-09T08:48:30.112Z,101246.52
2023-12-09T08:50:58.283Z,101244.30
2023-12-09T08:53:25.982Z,101240.58
2023-12-09T08:55:53.742Z,101234.84
2023-12-09T08:58:21.408Z,101231.86
2023-12-09T09:00:52.982Z,101230.46
2023-12-09T09:03:21.373Z,101228.90
2023-12-09T09:05:49.253Z,101226.65
2023-12-09T09:08:16.972Z,101225.56
2023-12-09T09:10:44.640Z,101224.15
2023-12-09T09:13:12.327Z,101218.88
2023-12-09T09:15:40.087Z,101219.89
2023-12-09T09:18:08.396Z,101217.66
2023-12-09T09:20:36.207Z,101221.60
2023-12-09T09:23:03.824Z,101218.23
2023-12-09T09:25:32.149Z,101216.11
2023-12-09T09:27:59.807Z,101215.02
2023-12-09T09:30:27.501Z,101213.27
2023-12-09T09:32:55.341Z,101211.89
2023-12-09T09:35:23.215Z,101208.38
2023-12-09T09:37:50.773Z,101207.89
2023-12-09T09:40:18.428Z,101205.66
2023-12-09T09:42:57.283Z,101203.84
2023-12-09T09:50:11.806Z,101199.36
2023-12-09T09:52:41.931Z,101192.34
2023-12-09T09:55:09.725Z,101189.59
2023-12-09T09:57:37.509Z,101188.04
2023-12-09T10:00:15.384Z,101189.58
2023-12-09T10:02:55.335Z,101183.08
2023-12-09T10:05:24.938Z,101180.83
2023-12-09T10:07:53.371Z,101176.44
2023-12-09T10:10:21.233Z,101177.34
2023-12-09T10:12:49.295Z,101178.67
2023-12-09T10:15:17.206Z,101178.95
2023-12-09T10:17:45.560Z,101179.84
2023-12-09T10:20:13.699Z,101181.27
2023-12-09T10:22:41.712Z,101180.39
2023-12-09T10:25:09.494Z,101174.98
2023-12-09T10:27:37.023Z,101175.01
2023-12-09T10:30:09.983Z,101173.81
2023-12-09T10:32:38.018Z,101170.41
2023-12-09T10:35:06.580Z,101166.11
2023-12-09T10:37:34.551Z,101160.48
2023-12-09T10:40:04.007Z,101154.66
2023-12-09T10:42:32.053Z,101148.52
2023-12-09T10:45:04.686Z,101145.31
2023-12-09T10:47:32.534Z,101143.98
2023-12-09T10:50:00.501Z,101137.44
2023-12-09T10:52:28.456Z,101132.27
2023-12-09T10:54:56.735Z,101129.46
2023-12-09T10:57:24.899Z,101129.80
2023-12-09T10:59:53.630Z,101125.70
2023-12-09T11:02:22.424Z,101122.50
2023-12-09T11:04:50.658Z,101127.17
2023-12-09T11:07:18.313Z,101124.59
2023-12-09T11:09:46.013Z,101124.90
2023-12-09T11:12:30.141Z,101123.63
2023-12-09T11:15:24.535Z,101128.90
2023-12-09T11:17:55.175Z,101127.09
2023-12-09T11:20:24.113Z,101125.58
2023-12-09T11:22:52.007Z,101123.45
2023-12-09T11:25:19.791Z,101121.99
2023-12-09T11:27:50.202Z,101124.52
2023-12-09T11:30:47.927Z,101119.30
2023-12-09T11:33:15.938Z,101118.71
2023-12-09T11:35:44.438Z,101119.29
2023-12-09T11:38:11.990Z,101123.41
2023-12-09T11:40:39.642Z,101124.94
2023-12-09T11:43:10.086Z,101130.04
2023-12-09T11:45:38.680Z,101133.63
2023-12-09T11:48:06.912Z,101141.83
2023-12-09T11:50:35.534Z,101145.67
2023-12-09T11:53:03.379Z,101151.98
2023-12-09T11:55:31.093Z,101154.30
2023-12-09T11:57:58.931Z,101160.15
2023-12-09T12:00:27.518Z,101162.88
2023-12-09T12:02:55.478Z,101163.05
2023-12-09T12:05:23.204Z,101166.74
2023-12-09T12:07:50.871Z,101164.96
2023-12-09T12:10:18.961Z,101163.80
2023-12-09T12:12:46.775Z,101165.94
2023-12-09T12:15:14.875Z,101164.05
2023-12-09T12:17:42.937Z,101160.30
2023-12-09T12:20:12.059Z,101158.75
2023-12-09T12:22:43.104Z,101154.06
2023-12-09T12:25:11.241Z,101147.82
2023-12-09T12:27:43.091Z,101143.83
2023-12-09T12:30:11.351Z,101142.48
2023-12-09T12:32:39.714Z,101142.91
2023-12-09T12:38:10.969Z,101146.96
2023-12-09T12:40:38.526Z,101147.81
2023-12-09T12:43:06.189Z,101145.45
2023-12-09T12:45:34.237Z,101145.49
2023-12-09T12:48:02.035Z,101141.86
2023-12-09T12:50:29.799Z,101143.27
2023-12-09T12:52:57.763Z,101146.28
2023-12-09T12:55:25.532Z,101145.98
2023-12-09T12:57:56.073Z,101142.66
2023-12-09T13:00:24.445Z,101142.23
2023-12-09T13:02:52.306Z,101146.11
2023-12-09T13:05:19.969Z,101147.91
2023-12-09T13:07:49.471Z,101149.59
2023-12-09T13:10:17.155Z,101150.48
2023-12-09T13:12:45.310Z,101152.78
2023-12-09T13:15:13.088Z,101153.61
2023-12-09T13:17:41.196Z,101153.02
2023-12-09T13:20:11.282Z,101150.95
2023-12-09T13:22:39.066Z,101156.60
2023-12-09T13:25:08.249Z,101151.05
2023-12-09T13:27:37.469Z,101150.64
2023-12-09T13:30:08.373Z,101149.48
2023-12-09T13:32:36.401Z,101147.66
2023-12-09T13:35:05.689Z,101148.12
2023-12-09T13:37:33.993Z,101151.40
2023-12-09T13:40:02.504Z,101149.11
2023-12-09T13:42:30.964Z,101146.87
2023-12-09T13:44:59.761Z,101150.70
2023-12-09T13:47:27.546Z,101149.45
2023-12-09T13:49:55.262Z,101145.44
2023-12-09T13:52:24.125Z,101145.02
2023-12-09T13:54:53.282Z,101149.34
2023-12-09T13:57:20.990Z,101149.65
2023-12-09T13:59:48.860Z,101150.90
2023-12-09T14:02:16.784Z,101146.52
2023-12-09T14:04:44.505Z,101146.07
2023-12-09T14:07:12.415Z,101148.37
2023-12-09T14:09:40.052Z,101152.38
2023-12-09T14:12:08.497Z,101154.27
2023-12-09T14:14:36.222Z,101148.59
2023-12-09T14:17:06.797Z,101150.89
2023-12-09T14:19:34.666Z,101156.65
2023-12-09T14:22:04.219Z,101159.48
2023-12-09T14:24:31.899Z,101155.85
2023-12-09T14:26:59.772Z,101159.40
2023-12-09T14:29:27.348Z,101155.28
2023-12-09T14:31:55.081Z,101158.45
2023-12-09T14:34:23.186Z,101152.33
2023-12-09T14:36:51.017Z,101153.48
2023-12-09T14:39:19.124Z,101155.09
2023-12-09T14:41:46.811Z,101150.89
2023-12-09T14:44:14.765Z,101150.03
2023-12-09T14:46:42.309Z,101144.91
2023-12-09T14:49:10.066Z,101146.83
2023-12-09T14:51:43.473Z,101146.95
2023-12-09T14:54:15.769Z,101142.66
2023-12-09T14:56:45.337Z,101141.20
2023-12-09T14:59:13.266Z,101140.98
2023-12-09T15:01:41.251Z,101143.58
2023-12-09T15:04:09.098Z,101144.58
2023-12-09T15:06:36.938Z,101146.48
2023-12-09T15:09:04.786Z,101144.56
2023-12-09T15:11:32.645Z,101145.98
2023-12-09T15:14:00.197Z,101147.23
2023-12-09T15:16:30.151Z,101150.39
2023-12-09T15:18:57.967Z,101148.77
2023-12-09T15:21:25.784Z,101144.38
2023-12-09T15:23:53.726Z,101142.29
2023-12-09T15:26:21.849Z,101141.48
2023-12-09T15:28:50.528Z,101145.30
2023-12-09T15:31:18.366Z,101145.60
2023-12-09T15:33:46.221Z,101143.50
2023-12-09T15:36:14.077Z,101141.16
2023-12-09T15:38:42.021Z,101138.42
2023-12-09T15:41:09.683Z,101135.90
2023-12-09T15:43:37.394Z,101135.84
2023-12-09T15:46:05.317Z,101130.70
2023-12-09T15:48:33.142Z,101129.46
2023-12-09T15:51:03.025Z,101126.84
2023-12-09T15:53:30.973Z,101127.63
2023-12-09T15:56:00.419Z,101126.20
2023-12-09T15:58:28.237Z,101124.20
2023-12-09T16:00:55.970Z,101126.40
2023-12-09T16:03:23.954Z,101126.90
2023-12-09T16:05:54.194Z,101127.15
2023-12-09T16:08:22.871Z,101128.50
2023-12-09T16:10:51.052Z,101125.96
2023-12-09T16:13:19.272Z,101123.09
2023-12-09T16:15:47.104Z,101123.98
2023-12-09T16:18:15.328Z,101119.09
2023-12-09T16:20:43.231Z,101119.75
2023-12-09T16:23:10.893Z,101121.77
2023-12-09T16:25:38.563Z,101121.61
2023-12-09T16:28:07.042Z,101122.17
2023-12-09T16:30:34.758Z,101121.51
2023-12-09T16:33:03.246Z,101120.38
2023-12-09T16:35:31.056Z,101120.18
2023-12-09T16:37:58.928Z,101118.73
2023-12-09T16:40:26.798Z,101118.23
2023-12-09T16:42:54.565Z,101112.66
2023-12-09T16:45:22.398Z,101111.16
2023-12-09T16:47:50.216Z,101118.05
2023-12-09T16:50:18.366Z,101123.40
2023-12-09T16:52:46.034Z,101125.55
2023-12-09T16:55:13.913Z,101126.69
2023-12-09T16:57:41.598Z,101124.10
2023-12-09T17:00:11.312Z,101118.11
2023-12-09T17:02:39.724Z,101124.33
2023-12-09T17:05:10.132Z,101123.25
2023-12-09T17:07:37.740Z,101125.46
2023-12-09T17:10:06.132Z,101121.07
2023-12-09T17:12:33.752Z,101119.66
2023-12-09T17:15:01.445Z,101120.81
2023-12-09T17:17:29.134Z,101118.54
2023-12-09T17:19:57.218Z,101116.73
2023-12-09T17:22:26.798Z,101119.59
2023-12-09T17:24:54.650Z,101124.03
2023-12-09T17:27:22.334Z,101126.21
2023-12-09T17:29:49.875Z,101129.41
2023-12-09T17:32:17.634Z,101125.29
2023-12-09T17:34:45.862Z,101123.70
2023-12-09T17:37:13.682Z,101120.87
2023-12-09T17:39:41.400Z,101119.70
2023-12-09T17:42:09.166Z,101115.71
2023-12-09T17:44:36.971Z,101113.41
2023-12-09T17:47:05.358Z,101116.05
2023-12-09T17:49:33.331Z,101111.16
2023-12-09T17:52:01.702Z,101113.02
2023-12-09T17:54:29.419Z,101111.05
2023-12-09T17:56:57.124Z,101108.45
2023-12-09T17:59:24.897Z,101103.44
2023-12-09T18:01:52.550Z,101102.03
2023-12-09T18:04:20.366Z,101098.66
2023-12-09T18:06:48.380Z,101099.02
2023-12-09T18:09:16.296Z,101097.45
2023-12-09T18:11:44.330Z,101094.69
2023-12-09T18:14:11.886Z,101093.02
2023-12-09T18:16:39.959Z,101091.04
2023-12-09T18:19:07.825Z,101087.98
2023-12-09T18:21:36.498Z,101087.21
2023-12-09T18:24:05.035Z,101084.93
2023-12-09T18:26:32.701Z,101086.42
2023-12-09T18:29:00.865Z,101084.73
2023-12-09T18:31:29.416Z,101079.60
2023-12-09T18:33:57.818Z,101076.33
2023-12-09T18:36:25.770Z,101075.44
2023-12-09T18:38:53.527Z,101076.02
2023-12-09T18:41:21.422Z,101070.84
2023-12-09T18:43:50.290Z,101070.91
2023-12-09T18:46:18.159Z,101072.02
2023-12-09T18:48:49.259Z,101068.77
2023-12-09T18:51:17.277Z,101067.31
2023-12-09T18:53:44.930Z,101064.36
2023-12-09T18:56:12.687Z,101063.45
2023-12-09T18:58:41.067Z,101061.20
2023-12-09T19:01:11.265Z,101051.34
2023-12-09T19:03:40.043Z,101040.88
2023-12-09T19:06:10.026Z,101040.41
2023-12-09T19:08:39.034Z,101042.19
2023-12-09T19:11:07.413Z,101040.79
2023-12-09T19:13:35.115Z,101044.00
2023-12-09T19:16:03.924Z,101044.35
2023-12-09T19:18:31.808Z,101045.80
2023-12-09T19:20:59.661Z,101043.13
2023-12-09T19:23:27.423Z,101037.31
2023-12-09T19:25:55.080Z,101034.67
2023-12-09T19:28:22.953Z,101034.98
2023-12-09T19:30:50.686Z,101030.14
2023-12-09T19:33:18.481Z,101026.29
2023-12-09T19:35:46.356Z,101028.44
2023-12-09T19:38:14.219Z,101024.97
2023-12-09T19:40:41.840Z,101022.16
2023-12-09T19:43:09.639Z,101018.44
2023-12-09T19:45:37.333Z,101013.05
2023-12-09T19:48:05.141Z,101010.94
2023-12-09T19:50:32.950Z,101014.00
2023-12-09T19:53:02.385Z,101010.55
2023-12-09T19:55:30.099Z,101005.86
2023-12-09T19:57:58.623Z,101006.36
2023-12-09T20:00:26.594Z,101007.20
2023-12-09T20:02:54.438Z,100999.83
2023-12-09T20:05:23.422Z,101005.16
2023-12-09T20:07:51.182Z,101005.86
2023-12-09T20:10:18.845Z,101001.75
2023-12-09T20:12:46.724Z,100998.14
2023-12-09T20:15:15.097Z,100997.65
2023-12-09T20:17:42.731Z,100999.11
2023-12-09T20:20:11.109Z,100996.36
2023-12-09T20:22:39.010Z,100988.95
2023-12-09T20:25:07.387Z,100987.26
2023-12-09T20:27:35.237Z,100985.07
2023-12-09T20:30:03.541Z,100979.45
2023-12-09T20:32:31.525Z,100976.26
2023-12-09T20:34:59.769Z,100970.17
2023-12-09T20:37:27.428Z,100968.69
2023-12-09T20:39:58.423Z,100969.47
2023-12-09T20:42:26.537Z,100964.83
2023-12-09T20:44:54.697Z,100965.63
2023-12-09T20:47:23.000Z,100964.88
2023-12-09T20:49:52.271Z,100961.53
2023-12-09T20:52:20.671Z,100961.32
2023-12-09T20:54:48.774Z,100962.12
2023-12-09T20:57:16.780Z,100964.75
2023-12-09T20:59:44.586Z,100969.67
2023-12-09T21:02:12.341Z,100979.56
2023-12-09T21:04:45.414Z,100985.76
2023-12-09T21:07:13.574Z,100984.39
2023-12-09T21:09:41.378Z,100983.55
2023-12-09T21:12:09.496Z,100982.16
2023-12-09T21:14:37.328Z,100976.38
2023-12-09T21:17:05.391Z,100979.16
2023-12-09T21:19:36.175Z,100977.96
2023-12-09T21:22:04.649Z,100979.05
2023-12-09T21:24:32.805Z,100976.97
2023-12-09T21:27:00.749Z,100979.94
2023-12-09T21:29:28.607Z,100982.44
2023-12-09T21:31:58.433Z,100978.58
2023-12-09T21:34:26.163Z,100972.52
2023-12-09T21:36:54.168Z,100970.69
2023-12-09T21:39:21.861Z,100974.21
2023-12-09T21:41:49.592Z,100967.40
2023-12-09T21:44:17.247Z,100958.23
2023-12-09T21:46:44.802Z,100953.96
2023-12-09T21:49:12.926Z,100958.00
2023-12-09T21:51:41.544Z,100958.86
2023-12-09T21:54:09.420Z,100960.47
2023-12-09T21:56:37.208Z,100959.48
2023-12-09T21:59:05.479Z,100961.59
2023-12-09T22:01:34.288Z,100959.72
2023-12-09T22:04:04.387Z,100953.63
2023-12-09T22:06:32.183Z,100953.73
2023-12-09T22:09:00.684Z,100952.52
2023-12-09T22:11:28.404Z,100950.17
2023-12-09T22:13:56.053Z,100945.41
2023-12-09T22:16:23.721Z,100943.04
2023-12-09T22:18:51.601Z,100934.81
2023-12-09T22:21:19.735Z,100931.29
2023-12-09T22:23:47.551Z,100925.29
2023-12-09T22:26:15.186Z,100923.23
2023-12-09T22:28:43.362Z,100924.40
2023-12-09T22:31:11.233Z,100921.98
2023-12-09T22:33:41.522Z,100922.29
2023-12-09T22:36:12.785Z,100919.76
2023-12-09T22:38:40.458Z,100916.44
2023-12-09T22:41:08.206Z,100911.33
2023-12-09T22:43:36.093Z,100910.92
2023-12-09T22:46:04.633Z,100909.66
2023-12-09T22:48:32.540Z,100909.70
2023-12-09T22:51:02.620Z,100908.42
2023-12-09T22:53:30.325Z,100907.89
2023-12-09T22:56:12.161Z,100906.13
2023-12-09T22:58:41.832Z,100901.77
2023-12-09T23:01:09.760Z,100898.91
2023-12-09T23:03:37.633Z,100896.14
2023-12-09T23:06:06.643Z,100892.91
2023-12-09T23:08:35.818Z,100895.36
2023-12-09T23:11:06.230Z,100894.18
2023-12-09T23:13:33.950Z,100897.11
2023-12-09T23:16:01.675Z,100893.08
2023-12-09T23:18:30.435Z,100889.11
2023-12-09T23:20:58.166Z,100892.48
2023-12-09T23:23:25.827Z,100894.10
2023-12-09T23:25:54.715Z,100895.70
2023-12-09T23:28:23.814Z,100894.55
2023-12-09T23:30:51.568Z,100894.17
2023-12-09T23:33:19.594Z,100890.15
2023-12-09T23:35:47.837Z,100887.58
2023-12-09T23:38:15.596Z,100891.98
2023-12-09T23:40:43.562Z,100887.83
2023-12-09T23:43:11.286Z,100887.93
2023-12-09T23:45:39.091Z,100887.30
2023-12-09T23:48:07.728Z,100890.27
2023-12-09T23:50:35.543Z,100889.14
2023-12-09T23:53:03.317Z,100888.79
2023-12-09T23:55:31.085Z,100885.00
2023-12-09T23:57:58.800Z,100877.80
